Hauptseite
METAR-TAF:

METAR-TAF

Flughäfen :

Bohrplattform

Awg-1, Niederlande

Breite: 53-29-30N, Länge: 5-56-30E, Höhe: 33 m

Beobachtung

Neuester Wetterbericht von vor 29 Minuten, um 02:55 UTC
Wind 21 kt aus Ost/Südost
Temperatur 3°C
Luftfeuchtigkeit 81%
Luftdruck 1014 hPa
Durchbrochene Bewölkung in der Höhe von 1100 ft
Durchbrochene Bewölkung in der Höhe von 1500 ft
Durchbrochene Bewölkung in der Höhe von 2200 ft

METAR: EHMA 210255Z AUTO 12021KT //// // BKN011 BKN015 BKN022 03/00 Q1014 RE// W///H///

Zeit: 04:24 (03:24 UTC)


TAF: fehlend

Wetterbeobachtungen und Prognosen von mehr als 4000 Flughäfen (METAR und TAF Bericht).

Die verfügbaren Stationen werden durch gelbe und rote Markierungen auf der Karte dargestellt.

Führen Sie die Maus auf sie, um den Namen der Station zu sehen.

Darauf klicken, um die Beobachtung von Wetterbeobachtungen und Prognosen zu sehen.

Um die Karte zu ändern : klicken Sie auf den grünen Tasten mit einem schwarzen Kreuz Zum Vergrößern, auf den grünen Button mit einem Gedankenstrich zu verkleinern, oder auf die grünen Pfeile für benachbarte Karten.


METAR-TAF: